createdAt,value
2023-06-19T00:00:18.023Z,1756.00
2023-06-19T00:01:18.013Z,1744.00
2023-06-19T00:02:18.061Z,1772.00
2023-06-19T00:03:17.991Z,1759.00
2023-06-19T00:04:18.025Z,1771.00
2023-06-19T00:05:17.982Z,1764.00
2023-06-19T00:06:17.966Z,1752.00
2023-06-19T00:07:17.968Z,1753.00
2023-06-19T00:08:17.984Z,1759.00
2023-06-19T00:09:18.037Z,1756.00
2023-06-19T00:10:17.937Z,1760.00
2023-06-19T00:11:17.948Z,1765.00
2023-06-19T00:12:17.925Z,1766.00
2023-06-19T00:13:17.934Z,1785.00
2023-06-19T00:14:17.909Z,1758.00
2023-06-19T00:15:17.901Z,1758.00
2023-06-19T00:16:17.943Z,1777.00
2023-06-19T00:17:17.969Z,1774.00
2023-06-19T00:18:17.909Z,1787.00
2023-06-19T00:19:17.918Z,1781.00
2023-06-19T00:20:17.903Z,1779.00
2023-06-19T00:21:17.899Z,1773.00
2023-06-19T00:22:17.911Z,1768.00
2023-06-19T00:23:18.212Z,1771.00
2023-06-19T00:24:17.948Z,1784.00
2023-06-19T00:25:17.919Z,1772.00
2023-06-19T00:26:17.914Z,1771.00
2023-06-19T00:27:17.921Z,1790.00
2023-06-19T00:28:17.920Z,1768.00
2023-06-19T00:29:17.915Z,1769.00
2023-06-19T00:30:17.982Z,1755.00
2023-06-19T00:31:17.934Z,1734.00
2023-06-19T00:32:17.964Z,1761.00
2023-06-19T00:33:17.935Z,1756.00
2023-06-19T00:34:17.960Z,1739.00
2023-06-19T00:35:17.930Z,1736.00
2023-06-19T00:36:17.927Z,1743.00
2023-06-19T00:37:17.936Z,1746.00
2023-06-19T00:38:17.921Z,1729.00
2023-06-19T00:39:17.976Z,1744.00
2023-06-19T00:40:17.898Z,1717.00
2023-06-19T00:41:17.896Z,1730.00
2023-06-19T00:42:17.875Z,1729.00
2023-06-19T00:43:17.876Z,1709.00
2023-06-19T00:44:17.845Z,1710.00
2023-06-19T00:45:17.832Z,1711.00
2023-06-19T00:46:17.885Z,1710.00
2023-06-19T00:47:17.801Z,1714.00
2023-06-19T00:48:17.787Z,1728.00
2023-06-19T00:49:17.807Z,1702.00
2023-06-19T00:50:17.758Z,1708.00
2023-06-19T00:51:17.730Z,1688.00
2023-06-19T00:52:17.731Z,1716.00
2023-06-19T00:53:17.701Z,1706.00
2023-06-19T00:54:17.683Z,1703.00
2023-06-19T00:55:17.675Z,1711.00
2023-06-19T00:56:17.654Z,1717.00
2023-06-19T00:57:17.638Z,1712.00
2023-06-19T00:58:17.620Z,1703.00
2023-06-19T00:59:17.636Z,1704.00
2023-06-19T01:00:17.602Z,1708.00
2023-06-19T01:01:17.643Z,1713.00
2023-06-19T01:02:17.695Z,1726.00
2023-06-19T01:03:18.948Z,1735.00
2023-06-19T01:04:17.659Z,1732.00
2023-06-19T01:05:17.543Z,1733.00
2023-06-19T01:06:17.507Z,1718.00
2023-06-19T01:07:17.481Z,1735.00
2023-06-19T01:08:17.487Z,1714.00
2023-06-19T01:09:17.474Z,1713.00
2023-06-19T01:10:17.459Z,1720.00
2023-06-19T01:11:26.038Z,1730.00
2023-06-19T01:12:18.442Z,1730.00
2023-06-19T01:13:17.428Z,1731.00
2023-06-19T01:14:17.429Z,1733.00
2023-06-19T01:15:17.387Z,1733.00
2023-06-19T01:16:17.469Z,1738.00
2023-06-19T01:17:17.380Z,1738.00
2023-06-19T01:18:17.370Z,1732.00
2023-06-19T01:19:17.331Z,1733.00
2023-06-19T01:20:17.335Z,1734.00
2023-06-19T01:21:17.316Z,1733.00
2023-06-19T01:22:17.279Z,1755.00
2023-06-19T01:23:17.265Z,1785.00
2023-06-19T01:24:17.322Z,1834.00
2023-06-19T01:25:17.231Z,1869.00
2023-06-19T01:26:17.224Z,1902.00
2023-06-19T01:27:17.204Z,1918.00
2023-06-19T01:28:17.209Z,1955.00
2023-06-19T01:29:17.192Z,1991.00
2023-06-19T01:30:17.165Z,2031.00
2023-06-19T01:31:17.147Z,2056.00
2023-06-19T01:32:17.146Z,2095.00
2023-06-19T01:33:17.134Z,2137.00
2023-06-19T01:34:17.132Z,2163.00
2023-06-19T01:35:17.107Z,2165.00
2023-06-19T01:36:17.088Z,2173.00
2023-06-19T01:37:17.112Z,2196.00
2023-06-19T01:38:17.046Z,2233.00
2023-06-19T01:39:17.041Z,2289.00
2023-06-19T01:40:17.023Z,2327.00
2023-06-19T01:41:17.012Z,2344.00
2023-06-19T01:42:17.007Z,2360.00
2023-06-19T01:43:16.970Z,2380.00
2023-06-19T01:44:16.957Z,2388.00
2023-06-19T01:45:16.969Z,2422.00
2023-06-19T01:46:17.049Z,2420.00
2023-06-19T01:47:17.005Z,2441.00
2023-06-19T01:48:17.018Z,2458.00
2023-06-19T01:49:17.028Z,2493.00
2023-06-19T01:50:17.063Z,2497.00
2023-06-19T01:51:17.082Z,2509.00
2023-06-19T01:52:17.066Z,2521.00
2023-06-19T01:53:17.080Z,2528.00
2023-06-19T01:54:17.076Z,2559.00
2023-06-19T01:55:17.074Z,2557.00
2023-06-19T01:56:17.092Z,2584.00
2023-06-19T01:57:17.114Z,2612.00
2023-06-19T01:58:17.102Z,2631.00
2023-06-19T01:59:17.119Z,2611.00
2023-06-19T02:00:17.116Z,2658.00
2023-06-19T02:01:17.107Z,2670.00
2023-06-19T02:02:17.156Z,2688.00
2023-06-19T02:03:17.277Z,2696.00
2023-06-19T02:04:17.200Z,2709.00
2023-06-19T02:05:17.211Z,2694.00
2023-06-19T02:06:17.258Z,2704.00
2023-06-19T02:07:17.276Z,2716.00
2023-06-19T02:08:17.296Z,2733.00
2023-06-19T02:09:17.338Z,2753.00
2023-06-19T02:10:17.365Z,2773.00
2023-06-19T02:11:17.363Z,2778.00
2023-06-19T02:12:17.383Z,2778.00
2023-06-19T02:13:17.346Z,2793.00
2023-06-19T02:14:17.336Z,2787.00
2023-06-19T02:15:17.343Z,2806.00
2023-06-19T02:16:17.403Z,2809.00
2023-06-19T02:17:17.402Z,2817.00
2023-06-19T02:18:17.364Z,2826.00
2023-06-19T02:19:17.368Z,2834.00
2023-06-19T02:20:17.358Z,2834.00
2023-06-19T02:21:17.341Z,2829.00
2023-06-19T02:22:17.350Z,2826.00
2023-06-19T02:23:17.334Z,2857.00
2023-06-19T02:24:17.394Z,2857.00
2023-06-19T02:25:17.340Z,2853.00
2023-06-19T02:26:17.354Z,2859.00
2023-06-19T02:27:17.324Z,2860.00
2023-06-19T02:28:17.324Z,2861.00
2023-06-19T02:29:17.293Z,2861.00
2023-06-19T02:30:17.284Z,2873.00
2023-06-19T02:31:17.257Z,2885.00
2023-06-19T02:32:17.258Z,2894.00
2023-06-19T02:33:17.230Z,2896.00
2023-06-19T02:34:17.199Z,2896.00
2023-06-19T02:35:17.190Z,2901.00
2023-06-19T02:36:17.191Z,2901.00
2023-06-19T02:37:17.171Z,2897.00
2023-06-19T02:38:17.162Z,2908.00
2023-06-19T02:39:17.142Z,2917.00
2023-06-19T02:40:17.140Z,2923.00
2023-06-19T02:41:17.139Z,2924.00
2023-06-19T02:42:17.108Z,2927.00
2023-06-19T02:43:17.109Z,2927.00
2023-06-19T02:44:17.075Z,2928.00
2023-06-19T02:45:17.059Z,2936.00
2023-06-19T02:46:17.084Z,2936.00
2023-06-19T02:47:17.026Z,2941.00
2023-06-19T02:48:17.012Z,2938.00
2023-06-19T02:49:16.978Z,2958.00
2023-06-19T02:50:16.954Z,2956.00
2023-06-19T02:51:17.007Z,2960.00
2023-06-19T02:52:16.948Z,2961.00
2023-06-19T02:53:16.920Z,2964.00
2023-06-19T02:54:17.007Z,2964.00
2023-06-19T02:55:16.880Z,2964.00
2023-06-19T02:56:16.991Z,2978.00
2023-06-19T02:57:16.917Z,2997.00
2023-06-19T02:58:16.943Z,2976.00
2023-06-19T02:59:16.902Z,2987.00
2023-06-19T03:00:16.811Z,2977.00
2023-06-19T03:01:16.845Z,2998.00
2023-06-19T03:02:16.780Z,3002.00
2023-06-19T03:03:16.877Z,2994.00
2023-06-19T03:04:16.723Z,3000.00
2023-06-19T03:05:16.663Z,2994.00
2023-06-19T03:06:16.716Z,2999.00
2023-06-19T03:07:16.638Z,3019.00
2023-06-19T03:08:16.734Z,3012.00
2023-06-19T03:09:16.713Z,2989.00
2023-06-19T03:10:16.715Z,3004.00
2023-06-19T03:11:16.612Z,3000.00
2023-06-19T03:12:16.652Z,2996.00
2023-06-19T03:13:16.696Z,2990.00
2023-06-19T03:14:16.598Z,2996.00
2023-06-19T03:15:16.626Z,2998.00
2023-06-19T03:16:16.742Z,2988.00
2023-06-19T03:17:16.672Z,2992.00
2023-06-19T03:18:16.551Z,2980.00
2023-06-19T03:19:16.545Z,2979.00
2023-06-19T03:20:16.539Z,2984.00
2023-06-19T03:21:16.547Z,2985.00
2023-06-19T03:22:16.570Z,2967.00
2023-06-19T03:23:16.570Z,2980.00
2023-06-19T03:24:16.575Z,2972.00
2023-06-19T03:25:16.577Z,2982.00
2023-06-19T03:26:16.573Z,2970.00
2023-06-19T03:27:16.636Z,2966.00
2023-06-19T03:28:16.706Z,2971.00
2023-06-19T03:29:16.542Z,2968.00
2023-06-19T03:30:16.534Z,2960.00
2023-06-19T03:31:16.538Z,2983.00
2023-06-19T03:32:16.748Z,2969.00
2023-06-19T03:33:16.496Z,2977.00
2023-06-19T03:34:16.482Z,2961.00
2023-06-19T03:35:16.477Z,2953.00
2023-06-19T03:36:16.448Z,2946.00
2023-06-19T03:37:16.448Z,2967.00
2023-06-19T03:38:16.424Z,2951.00
2023-06-19T03:39:16.426Z,2951.00
2023-06-19T03:40:16.398Z,2954.00
2023-06-19T03:41:16.397Z,2935.00
2023-06-19T03:42:16.376Z,2914.00
2023-06-19T03:43:16.355Z,2938.00
2023-06-19T03:44:16.337Z,2945.00
2023-06-19T03:45:16.363Z,2956.00
2023-06-19T03:46:16.355Z,2943.00
2023-06-19T03:47:16.297Z,2945.00
2023-06-19T03:48:16.287Z,2945.00
2023-06-19T03:49:16.278Z,2941.00
2023-06-19T03:50:21.554Z,2935.00
2023-06-19T03:51:17.239Z,2935.00
2023-06-19T03:52:16.223Z,2938.00
2023-06-19T03:53:16.201Z,2940.00
2023-06-19T03:54:16.185Z,2953.00
2023-06-19T03:55:16.158Z,2938.00
2023-06-19T03:56:16.135Z,2928.00
2023-06-19T03:57:16.124Z,2919.00
2023-06-19T03:58:16.102Z,2929.00
2023-06-19T03:59:16.078Z,2923.00
2023-06-19T04:00:16.059Z,2895.00
2023-06-19T04:01:16.062Z,2918.00
2023-06-19T04:02:16.102Z,2898.00
2023-06-19T04:03:16.104Z,2916.00
2023-06-19T04:04:16.072Z,2911.00
2023-06-19T04:05:15.963Z,2916.00
2023-06-19T04:06:15.931Z,2906.00
2023-06-19T04:07:16.263Z,2905.00
2023-06-19T04:08:15.880Z,2901.00
2023-06-19T04:09:15.833Z,2894.00
2023-06-19T04:10:15.837Z,2894.00
2023-06-19T04:11:15.802Z,2900.00
2023-06-19T04:12:15.774Z,2901.00
2023-06-19T04:13:15.738Z,2904.00
2023-06-19T04:14:15.741Z,2908.00
2023-06-19T04:15:15.718Z,2909.00
2023-06-19T04:16:15.752Z,2902.00
2023-06-19T04:17:15.663Z,2903.00
2023-06-19T04:18:15.641Z,2909.00
2023-06-19T04:19:15.615Z,2911.00
2023-06-19T04:20:15.605Z,2922.00
2023-06-19T04:21:15.585Z,2903.00
2023-06-19T04:22:15.580Z,2922.00
2023-06-19T04:23:15.563Z,2908.00
2023-06-19T04:24:15.577Z,2895.00
2023-06-19T04:25:15.512Z,2885.00
2023-06-19T04:26:15.503Z,2898.00
2023-06-19T04:27:15.484Z,2881.00
2023-06-19T04:28:15.457Z,2886.00
2023-06-19T04:29:15.440Z,2892.00
2023-06-19T04:30:15.428Z,2891.00
2023-06-19T04:31:15.414Z,2880.00
2023-06-19T04:32:15.508Z,2891.00
2023-06-19T04:33:15.529Z,2872.00
2023-06-19T04:34:15.358Z,2867.00
2023-06-19T04:35:15.349Z,2868.00
2023-06-19T04:36:15.352Z,2871.00
2023-06-19T04:37:15.318Z,2874.00
2023-06-19T04:38:15.285Z,2881.00
2023-06-19T04:39:15.263Z,2885.00
2023-06-19T04:40:15.269Z,2884.00
2023-06-19T04:41:15.231Z,2885.00
2023-06-19T04:42:15.228Z,2889.00
2023-06-19T04:43:15.201Z,2877.00
2023-06-19T04:44:15.201Z,2864.00
2023-06-19T04:45:15.175Z,2887.00
2023-06-19T04:46:15.172Z,2867.00
2023-06-19T04:47:15.143Z,2882.00
2023-06-19T04:48:15.194Z,2875.00
2023-06-19T04:49:15.071Z,2872.00
2023-06-19T04:50:15.057Z,2885.00
2023-06-19T04:51:15.040Z,2873.00
2023-06-19T04:52:15.007Z,2888.00
2023-06-19T04:53:15.000Z,2858.00
2023-06-19T04:54:14.967Z,2876.00
2023-06-19T04:55:14.953Z,2859.00
2023-06-19T04:56:14.959Z,2849.00
2023-06-19T04:57:14.924Z,2839.00
2023-06-19T04:58:14.909Z,2841.00
2023-06-19T04:59:14.880Z,2843.00
2023-06-19T05:00:14.883Z,2840.00
2023-06-19T05:01:14.893Z,2845.00
2023-06-19T05:02:14.816Z,2836.00
2023-06-19T05:03:14.811Z,2837.00
2023-06-19T05:04:14.813Z,2838.00
2023-06-19T05:05:14.781Z,2837.00
2023-06-19T05:06:14.758Z,2836.00
2023-06-19T05:07:14.740Z,2833.00
2023-06-19T05:08:14.712Z,2837.00
2023-06-19T05:09:14.704Z,2838.00
2023-06-19T05:10:14.688Z,2839.00
2023-06-19T05:11:14.758Z,2836.00
2023-06-19T05:12:14.676Z,2834.00
2023-06-19T05:13:14.634Z,2834.00
2023-06-19T05:14:14.606Z,2819.00
2023-06-19T05:15:14.603Z,2833.00
2023-06-19T05:16:14.617Z,2820.00
2023-06-19T05:17:14.645Z,2820.00
2023-06-19T05:18:14.570Z,2820.00
2023-06-19T05:19:14.513Z,2806.00
2023-06-19T05:20:14.518Z,2818.00
2023-06-19T05:21:14.485Z,2815.00
2023-06-19T05:22:14.479Z,2805.00
2023-06-19T05:23:14.434Z,2806.00
2023-06-19T05:24:14.446Z,2806.00
2023-06-19T05:25:14.404Z,2804.00
2023-06-19T05:26:14.394Z,2791.00
2023-06-19T05:27:14.350Z,2795.00
2023-06-19T05:28:14.340Z,2789.00
2023-06-19T05:29:14.319Z,2788.00
2023-06-19T05:30:14.290Z,2771.00
2023-06-19T05:31:14.294Z,2785.00
2023-06-19T05:32:14.260Z,2790.00
2023-06-19T05:33:14.249Z,2813.00
2023-06-19T05:34:14.216Z,2845.00
2023-06-19T05:35:16.604Z,2865.00
2023-06-19T05:36:14.200Z,2866.00
2023-06-19T05:37:14.166Z,2877.00
2023-06-19T05:38:14.132Z,2903.00
2023-06-19T05:39:14.126Z,2961.00
2023-06-19T05:40:14.788Z,3042.00
2023-06-19T05:41:14.107Z,3085.00
2023-06-19T05:42:14.072Z,3130.00
2023-06-19T05:43:14.050Z,3153.00
2023-06-19T05:44:14.032Z,3185.00
2023-06-19T05:45:14.049Z,3228.00
2023-06-19T05:46:14.073Z,3264.00
2023-06-19T05:47:14.064Z,3297.00
2023-06-19T05:48:14.096Z,3325.00
2023-06-19T05:49:13.968Z,3357.00
2023-06-19T05:50:13.923Z,3410.00
2023-06-19T05:51:14.001Z,3450.00
2023-06-19T05:52:14.024Z,3483.00
2023-06-19T05:53:15.566Z,3505.00
2023-06-19T05:54:13.933Z,3534.00
2023-06-19T05:55:13.955Z,3572.00
2023-06-19T05:56:13.822Z,3626.00
2023-06-19T05:57:14.006Z,3660.00
2023-06-19T05:58:13.900Z,3673.00
2023-06-19T05:59:13.776Z,3700.00
2023-06-19T06:00:13.740Z,3748.00
2023-06-19T06:01:13.752Z,3766.00
2023-06-19T06:02:13.795Z,3799.00
2023-06-19T06:03:13.825Z,3852.00
2023-06-19T06:04:13.900Z,3867.00
2023-06-19T06:05:13.845Z,3893.00
2023-06-19T06:06:13.902Z,3936.00
2023-06-19T06:07:13.914Z,3961.00
2023-06-19T06:08:13.882Z,3963.00
2023-06-19T06:09:13.845Z,3964.00
2023-06-19T06:10:13.846Z,3980.00
2023-06-19T06:11:13.807Z,4004.00
2023-06-19T06:12:13.807Z,4035.00
2023-06-19T06:13:13.800Z,4086.00
2023-06-19T06:14:13.796Z,3967.00
2023-06-19T06:15:13.726Z,3985.00
2023-06-19T06:16:13.737Z,4019.00
2023-06-19T06:17:13.689Z,4075.00
2023-06-19T06:18:13.722Z,4160.00
2023-06-19T06:19:13.629Z,4161.00
2023-06-19T06:20:13.814Z,4172.00
2023-06-19T06:21:13.567Z,4125.00
2023-06-19T06:22:13.601Z,4093.00
2023-06-19T06:23:13.595Z,4050.00
2023-06-19T06:24:13.643Z,4037.00
2023-06-19T06:25:14.293Z,4057.00
2023-06-19T06:26:13.673Z,4100.00
2023-06-19T06:27:13.728Z,4134.00
2023-06-19T06:28:13.736Z,4173.00
2023-06-19T06:29:13.746Z,4169.00
2023-06-19T06:30:13.844Z,4189.00
2023-06-19T06:31:14.106Z,4231.00
2023-06-19T06:32:13.780Z,4250.00
2023-06-19T06:33:13.788Z,4274.00
2023-06-19T06:34:13.823Z,4306.00
2023-06-19T06:35:13.809Z,4329.00
2023-06-19T06:36:22.256Z,4331.00
2023-06-19T06:37:14.769Z,4332.00
2023-06-19T06:38:13.800Z,4343.00
2023-06-19T06:39:13.786Z,4366.00
2023-06-19T06:40:13.775Z,4391.00
2023-06-19T06:41:13.688Z,4419.00
2023-06-19T06:42:13.663Z,4367.00
2023-06-19T06:43:13.630Z,4352.00
2023-06-19T06:44:13.600Z,4365.00
2023-06-19T06:45:13.595Z,4308.00
2023-06-19T06:46:13.568Z,4283.00
2023-06-19T06:47:13.530Z,4267.00
2023-06-19T06:48:13.577Z,4169.00
2023-06-19T06:49:13.465Z,4070.00
2023-06-19T06:50:13.439Z,3962.00
2023-06-19T06:51:13.394Z,3830.00
2023-06-19T06:52:13.358Z,3726.00
2023-06-19T06:53:13.326Z,3626.00
2023-06-19T06:54:13.442Z,3576.00
2023-06-19T06:55:13.296Z,3561.00
2023-06-19T06:56:13.261Z,3477.00
2023-06-19T06:57:13.271Z,3403.00
2023-06-19T06:58:13.237Z,3377.00
2023-06-19T06:59:13.186Z,3290.00
2023-06-19T07:00:13.158Z,3294.00
2023-06-19T07:01:13.206Z,3212.00
2023-06-19T07:02:13.165Z,3143.00
2023-06-19T07:03:13.451Z,3088.00
2023-06-19T07:04:13.019Z,3144.00
2023-06-19T07:05:12.975Z,3147.00
2023-06-19T07:06:12.929Z,3126.00
2023-06-19T07:07:12.960Z,3158.00
2023-06-19T07:08:12.912Z,3089.00
2023-06-19T07:09:12.911Z,3053.00
2023-06-19T07:10:12.852Z,3156.00
2023-06-19T07:11:12.821Z,3102.00
2023-06-19T07:12:12.772Z,3132.00
2023-06-19T07:13:12.851Z,3004.00
2023-06-19T07:14:12.720Z,3088.00
2023-06-19T07:15:12.689Z,3103.00
2023-06-19T07:16:12.741Z,3102.00
2023-06-19T07:17:12.765Z,3195.00
2023-06-19T07:18:12.731Z,3053.00
2023-06-19T07:19:12.639Z,3171.00
2023-06-19T07:20:12.557Z,3142.00
2023-06-19T07:21:12.527Z,3220.00
2023-06-19T07:22:12.507Z,3269.00
2023-06-19T07:23:12.513Z,3296.00
2023-06-19T07:24:12.538Z,3314.00
2023-06-19T07:25:12.518Z,3322.00
2023-06-19T07:26:12.382Z,3403.00
2023-06-19T07:27:12.357Z,3441.00
2023-06-19T07:28:12.331Z,3294.00
2023-06-19T07:29:13.006Z,3248.00
2023-06-19T07:30:14.809Z,3076.00
2023-06-19T07:31:12.490Z,3174.00
2023-06-19T07:32:12.556Z,3081.00
2023-06-19T07:33:12.597Z,2952.00
2023-06-19T07:34:12.516Z,3010.00
2023-06-19T07:35:12.522Z,3157.00
2023-06-19T07:36:12.510Z,2957.00
2023-06-19T07:37:12.504Z,2900.00
2023-06-19T07:38:12.552Z,3141.00
2023-06-19T07:39:12.559Z,3295.00
2023-06-19T07:40:12.606Z,3432.00
2023-06-19T07:41:12.550Z,3437.00
2023-06-19T07:42:12.543Z,3317.00
2023-06-19T07:43:12.519Z,3449.00
2023-06-19T07:44:12.464Z,3560.00
2023-06-19T07:45:12.483Z,3440.00
2023-06-19T07:46:12.779Z,3261.00
2023-06-19T07:47:12.392Z,3152.00
2023-06-19T07:48:12.390Z,2776.00
2023-06-19T07:49:12.336Z,2113.00
2023-06-19T07:50:12.314Z,2274.00
2023-06-19T07:51:12.312Z,2065.00
2023-06-19T07:52:12.265Z,2125.00
2023-06-19T07:53:12.197Z,1740.00
2023-06-19T07:54:12.195Z,1341.00
2023-06-19T07:55:12.126Z,1328.00
2023-06-19T07:56:12.120Z,1393.00
2023-06-19T07:57:12.092Z,1403.00
2023-06-19T07:58:12.207Z,1336.00
2023-06-19T07:59:12.079Z,1197.00
2023-06-19T08:00:12.069Z,632.00
2023-06-19T08:01:12.176Z,629.00
2023-06-19T08:02:12.020Z,623.00
2023-06-19T08:03:12.024Z,470.00
2023-06-19T08:04:11.900Z,546.00
2023-06-19T08:05:12.014Z,529.00
2023-06-19T08:06:11.871Z,531.00
2023-06-19T08:07:11.930Z,426.00
2023-06-19T08:08:11.842Z,449.00
2023-06-19T08:09:11.839Z,400.00
2023-06-19T08:10:27.300Z,400.00
2023-06-19T08:11:12.780Z,400.00
2023-06-19T08:12:11.744Z,400.00
2023-06-19T08:13:11.722Z,400.00
2023-06-19T08:14:11.709Z,400.00
2023-06-19T08:15:11.680Z,468.00
2023-06-19T08:16:11.639Z,522.00
2023-06-19T08:17:11.718Z,538.00
2023-06-19T08:18:11.679Z,505.00
2023-06-19T08:19:11.563Z,507.00
2023-06-19T08:20:11.553Z,471.00
2023-06-19T08:21:11.523Z,433.00
2023-06-19T08:22:11.516Z,400.00
2023-06-19T08:23:11.525Z,422.00
2023-06-19T08:24:11.493Z,535.00
2023-06-19T08:25:11.487Z,554.00
2023-06-19T08:26:11.446Z,582.00
2023-06-19T08:27:11.395Z,610.00
2023-06-19T08:28:11.355Z,650.00
2023-06-19T08:29:11.356Z,668.00
2023-06-19T08:30:11.395Z,707.00
2023-06-19T08:31:11.358Z,708.00
2023-06-19T08:32:11.325Z,692.00
2023-06-19T08:33:11.406Z,730.00
2023-06-19T08:34:11.288Z,735.00
2023-06-19T08:35:11.261Z,830.00
2023-06-19T08:36:11.248Z,961.00
2023-06-19T08:37:11.246Z,984.00
2023-06-19T08:38:11.208Z,1038.00
2023-06-19T08:39:11.234Z,1024.00
2023-06-19T08:40:11.240Z,1005.00
2023-06-19T08:41:11.253Z,932.00
2023-06-19T08:42:11.290Z,899.00
2023-06-19T08:43:11.306Z,877.00
2023-06-19T08:44:11.360Z,845.00
2023-06-19T08:45:11.355Z,793.00
2023-06-19T08:46:11.494Z,799.00
2023-06-19T08:47:11.397Z,862.00
2023-06-19T08:48:11.438Z,867.00
2023-06-19T08:49:11.428Z,857.00
2023-06-19T08:50:11.432Z,838.00
2023-06-19T08:51:11.430Z,902.00
2023-06-19T08:52:11.438Z,908.00
2023-06-19T08:53:11.396Z,791.00
2023-06-19T08:54:11.402Z,742.00
2023-06-19T08:55:11.396Z,706.00
2023-06-19T08:56:11.391Z,737.00
2023-06-19T08:57:11.396Z,798.00
2023-06-19T08:58:11.344Z,899.00
2023-06-19T08:59:11.330Z,921.00
2023-06-19T09:00:11.323Z,965.00
2023-06-19T09:01:11.275Z,1028.00
2023-06-19T09:02:11.299Z,1074.00
2023-06-19T09:03:14.016Z,1085.00
2023-06-19T09:04:11.364Z,1118.00
2023-06-19T09:05:11.182Z,1120.00
2023-06-19T09:06:11.250Z,1132.00
2023-06-19T09:07:11.277Z,1121.00
2023-06-19T09:08:11.260Z,1130.00
2023-06-19T09:09:11.151Z,1132.00
2023-06-19T09:10:11.088Z,1150.00
2023-06-19T09:11:11.212Z,1180.00
2023-06-19T09:12:11.024Z,1187.00
2023-06-19T09:13:11.022Z,1187.00
2023-06-19T09:14:11.063Z,1164.00
2023-06-19T09:15:10.956Z,1164.00
2023-06-19T09:16:10.956Z,1170.00
2023-06-19T09:17:12.239Z,1167.00
2023-06-19T09:18:10.987Z,1180.00
2023-06-19T09:19:10.867Z,1204.00
2023-06-19T09:20:10.832Z,1169.00
2023-06-19T09:21:10.830Z,1194.00
2023-06-19T09:22:10.804Z,1230.00
2023-06-19T09:23:10.762Z,1286.00
2023-06-19T09:24:10.748Z,1380.00
2023-06-19T09:25:10.742Z,1432.00
2023-06-19T09:26:10.711Z,1416.00
2023-06-19T09:27:10.745Z,1427.00
2023-06-19T09:28:10.677Z,1452.00
2023-06-19T09:29:14.789Z,1476.00
2023-06-19T09:30:10.638Z,1476.00
2023-06-19T09:31:10.602Z,1463.00
2023-06-19T09:32:10.584Z,1481.00
2023-06-19T09:33:10.908Z,1507.00
2023-06-19T09:34:10.538Z,1550.00
2023-06-19T09:35:10.538Z,1588.00
2023-06-19T09:36:10.519Z,1633.00
2023-06-19T09:37:10.478Z,1656.00
2023-06-19T09:38:10.580Z,1710.00
2023-06-19T09:39:10.448Z,1730.00
2023-06-19T09:40:10.435Z,1676.00
2023-06-19T09:41:10.415Z,1569.00
2023-06-19T09:42:10.378Z,1564.00
2023-06-19T09:43:10.385Z,1628.00
2023-06-19T09:44:10.318Z,1758.00
2023-06-19T09:45:10.296Z,1871.00
2023-06-19T09:46:10.261Z,1963.00
2023-06-19T09:47:10.265Z,2053.00
2023-06-19T09:48:10.247Z,2107.00
2023-06-19T09:49:10.206Z,2173.00
2023-06-19T09:50:10.185Z,2271.00
2023-06-19T09:51:10.160Z,2352.00
2023-06-19T09:52:10.142Z,2355.00
2023-06-19T09:53:10.149Z,2375.00
2023-06-19T09:54:10.127Z,2426.00
2023-06-19T09:55:10.069Z,2361.00
2023-06-19T09:56:10.052Z,2399.00
2023-06-19T09:57:10.002Z,2476.00
2023-06-19T09:58:10.012Z,2594.00
2023-06-19T09:59:09.975Z,2753.00
2023-06-19T10:00:09.951Z,2840.00
2023-06-19T10:01:09.900Z,2889.00
2023-06-19T10:02:09.989Z,2944.00
2023-06-19T10:03:10.104Z,2969.00
2023-06-19T10:04:10.042Z,2992.00
2023-06-19T10:05:11.614Z,3026.00
2023-06-19T10:06:10.068Z,3028.00
2023-06-19T10:07:10.009Z,3061.00
2023-06-19T10:08:10.025Z,3114.00
2023-06-19T10:09:09.979Z,3119.00
2023-06-19T10:10:10.010Z,3148.00
2023-06-19T10:11:09.930Z,3208.00
2023-06-19T10:12:09.918Z,3213.00
2023-06-19T10:13:09.854Z,3212.00
2023-06-19T10:14:09.834Z,3225.00
2023-06-19T10:15:09.805Z,3262.00
2023-06-19T10:16:09.789Z,3305.00
2023-06-19T10:17:09.894Z,3412.00
2023-06-19T10:18:09.736Z,3420.00
2023-06-19T10:19:09.692Z,3441.00
2023-06-19T10:20:09.981Z,3440.00
2023-06-19T10:21:09.625Z,3461.00
2023-06-19T10:22:09.673Z,3547.00
2023-06-19T10:23:09.634Z,3590.00
2023-06-19T10:24:09.763Z,3603.00
2023-06-19T10:25:09.679Z,3619.00
2023-06-19T10:26:09.751Z,3628.00
2023-06-19T10:27:09.691Z,3684.00
2023-06-19T10:28:10.086Z,3718.00
2023-06-19T10:29:09.754Z,3701.00
2023-06-19T10:30:16.016Z,3701.00
2023-06-19T10:31:10.769Z,3702.00
2023-06-19T10:32:09.698Z,3712.00
2023-06-19T10:33:09.843Z,3704.00
2023-06-19T10:34:09.633Z,3723.00
2023-06-19T10:35:09.619Z,3762.00
2023-06-19T10:36:09.553Z,3795.00
2023-06-19T10:37:09.525Z,3778.00
2023-06-19T10:38:09.484Z,3799.00
2023-06-19T10:39:09.462Z,3732.00
2023-06-19T10:40:09.424Z,3427.00
2023-06-19T10:41:09.402Z,2411.00
2023-06-19T10:42:09.361Z,1711.00
2023-06-19T10:43:09.322Z,1610.00
2023-06-19T10:44:09.292Z,1704.00
2023-06-19T10:45:09.266Z,1716.00
2023-06-19T10:46:09.325Z,1718.00
2023-06-19T10:47:09.222Z,1774.00
2023-06-19T10:48:09.167Z,1849.00
2023-06-19T10:49:09.132Z,1816.00
2023-06-19T10:50:11.071Z,1765.00
2023-06-19T10:51:09.067Z,1764.00
2023-06-19T10:52:09.034Z,1801.00
2023-06-19T10:53:09.036Z,1856.00
2023-06-19T10:54:09.005Z,1857.00
2023-06-19T10:55:08.951Z,1776.00
2023-06-19T10:56:08.921Z,1734.00
2023-06-19T10:57:08.887Z,1767.00
2023-06-19T10:58:08.913Z,1717.00
2023-06-19T10:59:08.820Z,1636.00
2023-06-19T11:00:09.415Z,1624.00
2023-06-19T11:01:08.815Z,1668.00
2023-06-19T11:02:08.781Z,1638.00
2023-06-19T11:03:08.809Z,1582.00
2023-06-19T11:04:08.695Z,1530.00
2023-06-19T11:05:08.684Z,1224.00
2023-06-19T11:06:08.612Z,1005.00
2023-06-19T11:07:08.637Z,1032.00
2023-06-19T11:08:08.567Z,1033.00
2023-06-19T11:09:08.515Z,950.00
2023-06-19T11:10:08.530Z,1136.00
2023-06-19T11:11:08.448Z,1272.00
2023-06-19T11:12:09.527Z,862.00
2023-06-19T11:13:08.415Z,631.00
2023-06-19T11:14:08.337Z,850.00
2023-06-19T11:15:08.345Z,1051.00
2023-06-19T11:16:08.287Z,1037.00
2023-06-19T11:17:08.258Z,798.00
2023-06-19T11:18:08.240Z,845.00
2023-06-19T11:19:08.207Z,924.00
2023-06-19T11:20:08.145Z,1024.00
2023-06-19T11:21:08.104Z,1134.00
2023-06-19T11:22:08.081Z,1049.00
2023-06-19T11:23:08.049Z,856.00
2023-06-19T11:24:08.056Z,835.00
2023-06-19T11:25:07.961Z,737.00
2023-06-19T11:26:07.929Z,817.00
2023-06-19T11:27:07.981Z,1025.00
2023-06-19T11:28:07.864Z,1245.00
2023-06-19T11:29:08.978Z,1406.00
2023-06-19T11:30:07.815Z,1591.00
2023-06-19T11:31:07.833Z,1594.00
2023-06-19T11:32:07.743Z,1614.00
2023-06-19T11:33:07.710Z,1675.00
2023-06-19T11:34:07.733Z,1780.00
2023-06-19T11:35:07.635Z,1939.00
2023-06-19T11:36:07.608Z,2040.00
2023-06-19T11:37:07.575Z,2096.00
2023-06-19T11:38:07.568Z,2164.00
2023-06-19T11:39:07.487Z,2263.00
2023-06-19T11:40:07.507Z,2333.00
2023-06-19T11:41:07.525Z,2359.00
2023-06-19T11:42:07.417Z,2390.00
2023-06-19T11:43:07.404Z,2416.00
2023-06-19T11:44:07.352Z,2437.00
2023-06-19T11:45:07.308Z,2489.00
2023-06-19T11:46:07.352Z,2537.00
2023-06-19T11:47:07.272Z,2576.00
2023-06-19T11:48:07.372Z,2583.00
2023-06-19T11:49:07.764Z,2599.00
2023-06-19T11:50:07.357Z,2603.00
2023-06-19T11:51:07.316Z,2628.00
2023-06-19T11:52:07.318Z,2647.00
2023-06-19T11:53:07.375Z,2658.00
2023-06-19T11:54:07.376Z,2676.00
2023-06-19T11:55:07.361Z,2664.00
2023-06-19T11:56:07.368Z,2665.00
2023-06-19T11:57:07.330Z,2665.00
2023-06-19T11:58:07.302Z,2668.00
2023-06-19T11:59:07.282Z,2666.00
2023-06-19T12:00:07.215Z,2686.00
2023-06-19T12:01:07.215Z,2688.00
2023-06-19T12:02:07.235Z,2679.00
2023-06-19T12:03:07.241Z,2678.00
2023-06-19T12:04:07.218Z,2688.00
2023-06-19T12:05:07.083Z,2672.00
2023-06-19T12:06:07.084Z,2677.00
2023-06-19T12:07:07.111Z,2671.00